Latest Weather Observations for Cerberus

IDV60801

Issued at 11:35 am EST Monday 15 September 2014 (issued every 30 minutes, with the page automatically refreshed every 10 minutes)

About weather observations | Map of weather stations | Latest weather observations for VIC | Other Formats
Station Details ID: 086361 Name: CERBERUS Lat: -38.36 Lon: 145.18 Height: 12.69 m
Data from the previous 72 hours. | See also: Recent months at Cerberus
Date/Time
EST
Temp
°C
App
Temp
°C
Dew
Point
Rel
Hum
%
Delta-T
°C
Wind Press
QNH
hPa
Press
MSL
hPa
Rain
since 9 am
mm
Dir
 
Spd
km/h
Gust
km/h
Spd
kts
Gust
kts
15/11:30am 14.1 13.1 11.1 82 1.6 ESE 7 13 4 7 1015.0 1015.0 0.0
15/11:00am 12.9 11.8 10.8 87 1.1 ESE 7 11 4 6 1015.5 1015.5 0.0
15/10:30am 12.0 10.8 10.2 89 0.9 ENE 7 9 4 5 1016.0 1016.0 0.0
15/10:00am 11.9 10.9 10.3 90 0.8 E 6 7 3 4 1016.3 1016.3 0.0
15/09:30am 11.3 10.0 10.0 92 0.7 ENE 7 11 4 6 1016.7 1016.7 0.0
15/09:00am 10.8 9.6 9.7 93 0.6 ENE 6 9 3 5 1016.9 1016.9 1.2
15/08:30am 10.4 9.9 9.3 93 0.5 W 2 4 1 2 1017.0 1017.0 1.2
15/08:00am 9.8 8.8 8.7 93 0.5 WSW 4 7 2 4 1017.4 1017.4 1.0
15/07:30am 9.4 8.6 8.3 93 0.5 SE 2 4 1 2 1017.0 1017.0 0.8
15/07:00am 8.6 8.0 7.5 93 0.5 CALM 0 0 0 0 1016.8 1016.8 0.4
15/06:30am 7.7 6.9 6.6 93 0.5 CALM 0 6 0 3 1017.2 1017.2 0.0
15/06:00am 7.8 6.7 6.7 93 0.5 SE 2 6 1 3 1016.7 1016.7 0.0
15/05:30am 6.5 5.1 5.3 92 0.5 SSE 2 6 1 3 1017.2 1017.2 0.0
15/05:00am 6.5 5.4 5.3 92 0.5 SSE 0 4 0 2 1016.8 1016.8 0.0
15/04:30am 6.6 5.6 5.4 92 0.5 CALM 0 0 0 0 1016.6 1016.6 0.0
15/04:00am 7.4 6.5 6.2 92 0.5 CALM 0 0 0 0 1016.6 1016.6 0.0
15/03:30am 7.7 6.9 6.5 92 0.5 CALM 0 0 0 0 1017.0 1017.0 0.0
15/03:00am 7.7 6.9 6.5 92 0.5 CALM 0 0 0 0 1017.3 1017.3 0.0
15/02:30am 7.2 6.3 6.0 92 0.5 CALM 0 0 0 0 1017.7 1017.7 0.0
15/02:00am 7.5 6.7 6.3 92 0.5 CALM 0 0 0 0 1017.8 1017.8 0.0
15/01:30am 7.3 6.4 5.9 91 0.6 CALM 0 0 0 0 1018.3 1018.3 0.0
15/01:00am 7.8 7.0 6.6 92 0.5 CALM 0 0 0 0 1018.7 1018.7 0.0
15/12:30am 7.8 7.0 6.4 91 0.6 CALM 0 0 0 0 1019.0 1019.0 0.0
15/12:00am 7.9 7.1 6.4 90 0.7 SSE 0 0 0 0 1019.1 1019.1 0.0
 
Date/Time
EST
Temp
°C
App
Temp
°C
Dew
Point
Rel
Hum
%
Delta-T
°C
Wind Press
QNH
hPa
Press
MSL
hPa
Rain
since 9 am
mm
Dir
 
Spd
km/h
Gust
km/h
Spd
kts
Gust
kts
14/11:30pm 8.8 7.8 7.4 91 0.7 SSE 2 4 1 2 1019.3 1019.3 0.0
14/11:00pm 8.8 8.2 7.3 90 0.7 CALM 0 0 0 0 1019.4 1019.4 0.0
14/10:30pm 8.6 7.9 7.1 90 0.7 CALM 0 0 0 0 1019.6 1019.6 0.0
14/10:00pm 8.3 7.5 6.6 89 0.8 CALM 0 0 0 0 1019.6 1019.6 0.0
14/09:30pm 8.4 7.6 6.7 89 0.8 CALM 0 0 0 0 1019.7 1019.7 0.0
14/09:00pm 9.3 8.7 7.4 88 0.9 CALM 0 0 0 0 1019.7 1019.7 0.0
14/08:30pm 8.7 7.9 6.7 87 0.9 CALM 0 0 0 0 1019.9 1019.9 0.0
14/08:00pm 10.4 9.6 8.3 87 1.0 SSE 2 6 1 3 1019.6 1019.6 0.0
14/07:30pm 10.6 9.5 8.4 86 1.1 SSE 4 6 2 3 1019.5 1019.5 0.0
14/07:00pm 10.9 9.8 8.5 85 1.2 S 4 6 2 3 1019.3 1019.3 0.0
14/06:30pm 11.1 9.6 8.3 83 1.4 S 6 7 3 4 1019.2 1019.2 0.0
14/06:00pm 12.1 10.6 8.6 79 1.7 S 6 11 3 6 1019.0 1019.0 0.0
14/05:30pm 13.1 11.3 9.4 78 1.9 S 9 13 5 7 1018.9 1018.9 0.0
14/05:00pm 13.4 10.7 8.9 74 2.3 S 13 17 7 9 1018.8 1018.8 0.0
14/04:30pm 13.9 11.4 8.3 69 2.8 SSW 11 19 6 10 1019.0 1019.0 0.0
14/04:00pm 14.2 11.4 8.6 69 2.8 SSW 13 20 7 11 1019.1 1019.1 0.0
14/03:30pm 14.6 11.1 7.4 62 3.5 SSW 15 20 8 11 1019.1 1019.1 0.0
14/03:00pm 14.9 11.9 7.5 61 3.7 SSW 13 22 7 12 1019.1 1019.1 0.0
14/02:30pm 15.2 11.4 7.7 61 3.7 S 17 24 9 13 1019.2 1019.2 0.0
14/02:00pm 16.0 13.1 8.2 60 3.9 SSW 13 19 7 10 1019.2 1019.2 0.0
14/01:30pm 15.3 11.8 7.3 59 4.0 S 15 20 8 11 1019.4 1019.4 0.0
14/01:00pm 15.5 12.9 7.8 60 3.8 SSW 11 19 6 10 1019.7 1019.7 0.0
14/12:30pm 16.3 14.2 6.7 53 4.7 W 7 15 4 8 1020.1 1020.1 0.0
14/12:00pm 15.8 13.7 6.8 55 4.4 NW 7 17 4 9 1020.5 1020.5 0.0
14/11:30am 15.7 13.7 7.0 56 4.3 W 7 15 4 8 1020.9 1020.9 0.0
14/11:00am 15.1 12.3 6.9 58 4.0 NW 11 17 6 9 1021.2 1021.2 0.0
14/10:30am 15.3 12.3 7.6 60 3.8 NW 13 19 7 10 1021.4 1021.4 0.0
14/10:00am 14.7 11.8 8.0 64 3.3 NW 13 19 7 10 1021.3 1021.3 0.0
14/09:30am 14.4 11.8 7.9 65 3.2 NW 11 17 6 9 1021.6 1021.6 0.0
14/09:00am 13.8 12.1 8.4 70 2.7 WNW 7 13 4 7 1021.8 1021.8 0.0
14/08:30am 12.6 10.9 8.5 76 2.0 WNW 7 13 4 7 1021.9 1021.9 0.0
14/08:00am 11.7 10.1 8.9 83 1.4 NW 7 15 4 8 1021.5 1021.5 0.0
14/07:30am 10.4 8.7 8.3 87 1.0 NW 7 13 4 7 1021.2 1021.2 0.0
14/07:00am 9.5 8.2 7.6 88 0.9 NW 4 9 2 5 1021.0 1021.0 0.0
14/06:30am 9.1 8.0 7.1 87 0.9 NW 2 6 1 3 1020.8 1020.8 0.0
14/06:00am 9.3 7.9 7.3 87 0.9 NNW 4 7 2 4 1020.8 1020.8 0.0
14/05:30am 9.8 8.0 7.9 88 0.9 NW 7 13 4 7 1020.8 1020.8 0.0
14/05:00am 9.6 7.9 7.7 88 0.9 NW 6 9 3 5 1020.7 1020.7 0.0
14/04:30am 8.7 7.2 6.7 87 0.9 NNW 4 7 2 4 1020.8 1020.8 0.0
14/04:00am 8.2 6.6 6.2 87 0.9 NW 4 6 2 3 1020.9 1020.9 0.0
14/03:30am 8.0 6.3 5.8 86 1.0 NNW 4 7 2 4 1020.9 1020.9 0.0
14/03:00am 7.6 6.2 5.4 86 1.0 N 2 4 1 2 1021.2 1021.2 0.0
14/02:30am 7.6 5.8 5.4 86 1.0 N 4 6 2 3 1021.6 1021.6 0.0
14/02:00am 7.6 6.1 5.1 84 1.1 N 2 2 1 1 1021.9 1021.9 0.0
14/01:30am 7.9 6.4 5.0 82 1.3 N 2 4 1 2 1022.3 1022.3 0.0
14/01:00am 9.0 7.3 5.7 80 1.5 N 4 4 2 2 1022.6 1022.6 0.0
14/12:30am 10.0 8.6 7.1 82 1.4 N 4 6 2 3 1022.7 1022.7 0.0
14/12:00am 9.7 8.6 7.0 83 1.3 N 2 4 1 2 1022.8 1022.8 0.0
 
Date/Time
EST
Temp
°C
App
Temp
°C
Dew
Point
Rel
Hum
%
Delta-T
°C
Wind Press
QNH
hPa
Press
MSL
hPa
Rain
since 9 am
mm
Dir
 
Spd
km/h
Gust
km/h
Spd
kts
Gust
kts
13/11:30pm 9.5 8.7 6.6 82 1.4 CALM 0 0 0 0 1022.9 1022.9 0.0
13/11:00pm 9.9 9.2 6.8 81 1.4 CALM 0 4 0 2 1023.1 1023.1 0.0
13/10:30pm 9.6 8.4 6.5 81 1.4 N 2 4 1 2 1023.1 1023.1 0.0
13/10:00pm 9.6 8.1 6.7 82 1.3 N 4 4 2 2 1023.1 1023.1 0.0
13/09:30pm 9.0 7.3 5.7 80 1.5 N 4 4 2 2 1023.1 1023.1 0.0
13/09:00pm 9.7 8.1 6.2 79 1.6 N 4 6 2 3 1023.1 1023.1 0.0
13/08:30pm 10.2 8.6 6.5 78 1.7 N 4 6 2 3 1023.3 1023.3 0.0
13/08:00pm 9.6 7.9 5.8 77 1.7 SW 4 4 2 2 1023.2 1023.2 0.0
13/07:30pm 9.8 8.8 5.4 74 2.0 CALM 0 0 0 0 1023.0 1023.0 0.0
13/07:00pm 10.4 9.0 5.4 71 2.3 SW 2 2 1 1 1022.8 1022.8 0.0
13/06:30pm 11.0 8.6 5.3 68 2.6 SW 7 9 4 5 1022.7 1022.7 0.0
13/06:00pm 12.1 9.5 5.9 66 2.9 SW 9 13 5 7 1022.5 1022.5 0.0
13/05:30pm 12.8 9.9 6.6 66 3.0 SSW 11 17 6 9 1022.5 1022.5 0.0
13/05:00pm 13.4 10.3 7.2 66 3.0 SSW 13 20 7 11 1022.3 1022.3 0.0
13/04:30pm 13.7 10.4 6.6 62 3.4 SSW 13 20 7 11 1022.4 1022.4 0.0
13/04:00pm 14.7 11.7 7.5 62 3.5 SSW 13 20 7 11 1022.4 1022.4 0.0
13/03:30pm 15.7 12.8 6.4 54 4.5 WSW 11 17 6 9 1022.5 1022.5 0.0
13/03:00pm 15.4 12.9 5.0 50 4.9 W 7 13 4 7 1022.7 1022.7 0.0
13/02:30pm 15.1 11.8 4.8 50 4.8 WNW 11 19 6 10 1022.9 1022.9 0.0
13/02:00pm 14.8 11.6 5.3 53 4.5 W 11 19 6 10 1023.2 1023.2 0.0
13/01:30pm 14.7 11.8 6.3 57 4.0 WNW 11 19 6 10 1023.5 1023.5 0.0
13/01:00pm 14.4 12.0 7.0 61 3.6 WSW 9 15 5 8 1023.9 1023.9 0.0
13/12:30pm 15.1 12.7 7.2 59 3.9 WNW 9 13 5 7 1024.2 1024.2 0.0
13/12:00pm 14.2 12.2 6.1 58 3.9 N 6 11 3 6 1024.6 1024.6 0.0
13/11:30am 13.9 11.3 6.0 59 3.8 NNW 9 17 5 9 1024.9 1024.9 0.0
13/11:00am 14.1 12.0 6.5 60 3.6 N 7 11 4 6 1025.0 1025.0 0.0
13/10:30am 13.3 11.3 7.1 66 3.0 WNW 7 15 4 8 1025.4 1025.4 0.0
13/10:00am 13.5 11.7 7.3 66 3.0 NNW 6 9 3 5 1025.7 1025.7 0.0
13/09:30am 12.9 11.1 8.0 72 2.4 NNW 7 13 4 7 1025.9 1025.9 0.0
13/09:00am 12.2 10.8 8.9 80 1.6 NNW 6 9 3 5 1026.0 1026.0 0.0
13/08:30am 11.4 10.1 9.3 87 1.1 NNW 6 9 3 5 1026.1 1026.1 0.0
13/08:00am 10.2 9.1 8.6 90 0.8 N 4 9 2 5 1026.0 1026.0 0.0
13/07:30am 9.3 7.6 7.7 90 0.8 N 6 9 3 5 1026.1 1026.1 0.0
13/07:00am 8.5 7.0 7.0 90 0.7 NNE 4 6 2 3 1025.8 1025.8 0.0
13/06:30am 8.2 7.1 6.7 90 0.7 NNW 2 6 1 3 1025.7 1025.7 0.0
13/06:00am 8.5 7.0 7.0 90 0.7 N 4 7 2 4 1025.3 1025.3 0.0
13/05:30am 8.4 7.7 6.9 90 0.7 CALM 0 0 0 0 1025.3 1025.3 0.0
13/05:00am 8.3 7.6 6.8 90 0.7 CALM 0 2 0 1 1025.2 1025.2 0.0
13/04:30am 8.5 7.4 7.0 90 0.7 N 2 7 1 4 1025.2 1025.2 0.0
13/04:00am 8.6 7.2 7.1 90 0.7 N 4 6 2 3 1025.2 1025.2 0.0
13/03:30am 8.5 7.4 7.1 91 0.7 N 2 4 1 2 1025.3 1025.3 0.0
13/03:00am 7.9 6.7 6.5 91 0.6 N 2 4 1 2 1025.4 1025.4 0.0
13/02:30am 7.3 6.4 5.9 91 0.6 CALM 0 2 0 1 1025.6 1025.6 0.0
13/02:00am 7.4 5.7 6.0 91 0.6 N 4 6 2 3 1025.7 1025.7 0.0
13/01:30am 7.5 5.5 6.3 92 0.5 ENE 6 7 3 4 1026.0 1026.0 0.0
13/01:00am 7.0 5.2 5.6 91 0.6 E 4 6 2 3 1026.2 1026.2 0.0
13/12:30am 6.3 5.1 4.8 90 0.7 CALM 0 2 0 1 1026.4 1026.4 0.0
13/12:00am 6.6 5.5 5.1 90 0.7 CALM 0 0 0 0 1026.5 1026.5 0.0
 
Date/Time
EST
Temp
°C
App
Temp
°C
Dew
Point
Rel
Hum
%
Delta-T
°C
Wind Press
QNH
hPa
Press
MSL
hPa
Rain
since 9 am
mm
Dir
 
Spd
km/h
Gust
km/h
Spd
kts
Gust
kts
12/11:30pm 6.7 5.6 5.0 89 0.7 CALM 0 0 0 0 1026.7 1026.7 0.0
12/11:00pm 6.9 5.9 5.4 90 0.7 CALM 0 0 0 0 1027.0 1027.0 0.0
12/10:30pm 6.2 5.0 4.5 89 0.7 CALM 0 0 0 0 1027.1 1027.1 0.0
12/10:00pm 6.0 4.0 4.3 89 0.7 S 4 4 2 2 1027.1 1027.1 0.0
12/09:30pm 5.4 4.0 3.6 88 0.8 CALM 0 0 0 0 1027.1 1027.1 0.0
12/09:00pm 5.3 3.5 3.2 86 0.9 S 2 2 1 1 1026.9 1026.9 0.0
12/08:30pm 6.0 4.6 3.7 85 1.0 CALM 0 0 0 0 1027.0 1027.0 0.0
12/08:00pm 6.6 4.9 4.1 84 1.1 S 2 2 1 1 1026.7 1026.7 0.0
12/07:30pm 7.3 5.7 4.4 82 1.3 S 2 2 1 1 1026.6 1026.6 0.0
12/07:00pm 8.1 6.2 4.7 79 1.5 S 4 4 2 2 1026.4 1026.4 0.0
12/06:30pm 9.0 7.4 4.6 74 1.9 S 2 2 1 1 1026.2 1026.2 0.0
12/06:00pm 10.7 9.3 5.3 69 2.5 S 2 4 1 2 1026.1 1026.1 0.0
12/05:30pm 12.4 11.2 6.5 67 2.8 S 2 4 1 2 1026.1 1026.1 0.0
12/05:00pm 12.3 11.0 6.1 66 2.9 S 2 4 1 2 1026.0 1026.0 0.0
12/04:30pm 13.0 11.9 6.8 66 3.0 S 2 4 1 2 1026.0 1026.0 0.0
12/04:00pm 12.6 11.4 6.4 66 2.9 SSE 2 6 1 3 1026.1 1026.1 0.0
12/03:30pm 12.8 10.6 5.5 61 3.4 SSW 6 9 3 5 1026.2 1026.2 0.0
12/03:00pm 12.7 10.7 6.1 64 3.1 SSW 6 9 3 5 1026.2 1026.2 0.0
12/02:30pm 13.4 12.8 7.4 67 2.9 CALM 0 4 0 2 1026.2 1026.2 0.0
12/02:00pm 12.2 11.2 7.3 72 2.4 WSW 2 6 1 3 1026.3 1026.3 0.0
12/01:30pm 12.1 11.0 6.8 70 2.5 WSW 2 4 1 2 1026.4 1026.4 0.0
12/01:00pm 11.9 10.1 7.0 72 2.3 WSW 6 7 3 4 1026.5 1026.5 0.0
12/12:30pm 12.3 10.5 7.2 71 2.5 W 6 7 3 4 1026.5 1026.5 0.0
12/12:00pm 12.3 10.9 7.2 71 2.4 NW 4 7 2 4 1026.6 1026.6 0.0

Other Formats:

Comma delimited format used in spreadsheet applications
http://www.bom.gov.au/fwo/IDV60801/IDV60801.94898.axf

JavaScript Object Notation format (JSON) in row-major order
http://www.bom.gov.au/fwo/IDV60801/IDV60801.94898.json